Irishtown, Illinois
Current Conditions -  °F | °C
As of 3:35 AM on Monday 20 Oct 2014 (Local Time) from KENL Reporting Station
Broken Clouds Broken Clouds  
Wind Chill: 11°   Ceiling: 11000
Heat Index: 11°   Visibility: 10mi
Dew Point:   Wind: 7mph
Humidity: 80%   Direction: 220°SW
Pressure: 30"   Gusts: NA
Location:  38.7527°N, 89.3215°W
Report Text: KENL 200835Z AUTO 22006KT 10SM BKN110 11/08 A3000 RMK AO2 T01130080
Loading
Personal Weather Stations






























Interactive Weather Map
Tropical Storm Tracking
New forecast layout! Learn more

10-Day Weather Forecast

Advertisements
Track Severe Weather on mobile